sensor_id;sensor_type;location;lat;lon;timestamp;P1;durP1;ratioP1;P2;durP2;ratioP2
5831;SDS011;50943;51.448;7.646;2022-09-24T00:01:08;9.13;;;4.70;;
5831;SDS011;50943;51.448;7.646;2022-09-24T00:03:35;7.43;;;5.00;;
5831;SDS011;50943;51.448;7.646;2022-09-24T00:06:02;9.37;;;5.00;;
5831;SDS011;50943;51.448;7.646;2022-09-24T00:08:29;8.03;;;5.10;;
5831;SDS011;50943;51.448;7.646;2022-09-24T00:10:59;7.17;;;4.90;;
5831;SDS011;50943;51.448;7.646;2022-09-24T00:13:25;6.70;;;4.60;;
5831;SDS011;50943;51.448;7.646;2022-09-24T00:15:52;8.60;;;4.80;;
5831;SDS011;50943;51.448;7.646;2022-09-24T00:18:20;5.73;;;4.63;;
5831;SDS011;50943;51.448;7.646;2022-09-24T00:20:47;8.83;;;4.63;;
5831;SDS011;50943;51.448;7.646;2022-09-24T00:23:13;7.67;;;4.70;;
5831;SDS011;50943;51.448;7.646;2022-09-24T00:25:40;6.53;;;4.40;;
5831;SDS011;50943;51.448;7.646;2022-09-24T00:28:24;6.70;;;4.53;;
5831;SDS011;50943;51.448;7.646;2022-09-24T00:30:50;21.63;;;6.40;;
5831;SDS011;50943;51.448;7.646;2022-09-24T00:33:17;8.00;;;4.60;;
5831;SDS011;50943;51.448;7.646;2022-09-24T00:35:46;7.37;;;5.17;;
5831;SDS011;50943;51.448;7.646;2022-09-24T00:38:13;7.73;;;4.77;;
5831;SDS011;50943;51.448;7.646;2022-09-24T00:40:39;7.70;;;4.90;;
5831;SDS011;50943;51.448;7.646;2022-09-24T00:43:22;12.63;;;5.60;;
5831;SDS011;50943;51.448;7.646;2022-09-24T00:45:48;6.67;;;4.60;;
5831;SDS011;50943;51.448;7.646;2022-09-24T00:48:15;7.73;;;4.30;;
5831;SDS011;50943;51.448;7.646;2022-09-24T00:50:42;10.10;;;3.87;;
5831;SDS011;50943;51.448;7.646;2022-09-24T00:53:10;10.83;;;5.20;;
5831;SDS011;50943;51.448;7.646;2022-09-24T00:55:39;6.37;;;4.10;;
5831;SDS011;50943;51.448;7.646;2022-09-24T00:58:08;6.83;;;4.70;;
5831;SDS011;50943;51.448;7.646;2022-09-24T01:00:35;7.87;;;4.60;;
5831;SDS011;50943;51.448;7.646;2022-09-24T01:03:04;7.90;;;4.90;;
5831;SDS011;50943;51.448;7.646;2022-09-24T01:05:32;7.53;;;5.53;;
5831;SDS011;50943;51.448;7.646;2022-09-24T01:07:59;8.17;;;5.53;;
5831;SDS011;50943;51.448;7.646;2022-09-24T01:10:30;7.63;;;5.23;;
5831;SDS011;50943;51.448;7.646;2022-09-24T01:13:16;11.07;;;5.67;;
5831;SDS011;50943;51.448;7.646;2022-09-24T01:15:44;10.00;;;5.80;;
5831;SDS011;50943;51.448;7.646;2022-09-24T01:18:14;9.70;;;6.07;;
5831;SDS011;50943;51.448;7.646;2022-09-24T01:23:50;11.13;;;6.17;;
5831;SDS011;50943;51.448;7.646;2022-09-24T01:26:27;9.93;;;5.57;;
5831;SDS011;50943;51.448;7.646;2022-09-24T01:29:01;12.97;;;5.97;;
5831;SDS011;50943;51.448;7.646;2022-09-24T01:31:31;8.63;;;4.80;;
5831;SDS011;50943;51.448;7.646;2022-09-24T01:34:00;7.00;;;4.80;;
5831;SDS011;50943;51.448;7.646;2022-09-24T01:36:29;7.63;;;4.83;;
5831;SDS011;50943;51.448;7.646;2022-09-24T01:38:57;9.27;;;4.67;;
5831;SDS011;50943;51.448;7.646;2022-09-24T01:41:24;12.70;;;4.90;;
5831;SDS011;50943;51.448;7.646;2022-09-24T01:43:50;9.23;;;5.10;;
5831;SDS011;50943;51.448;7.646;2022-09-24T01:46:17;8.17;;;5.43;;
5831;SDS011;50943;51.448;7.646;2022-09-24T01:48:46;8.17;;;5.30;;
5831;SDS011;50943;51.448;7.646;2022-09-24T01:51:13;9.17;;;5.20;;
5831;SDS011;50943;51.448;7.646;2022-09-24T01:53:42;11.23;;;5.20;;
5831;SDS011;50943;51.448;7.646;2022-09-24T01:56:12;7.67;;;4.97;;
5831;SDS011;50943;51.448;7.646;2022-09-24T01:58:42;10.63;;;5.27;;
5831;SDS011;50943;51.448;7.646;2022-09-24T02:01:11;6.60;;;4.50;;
5831;SDS011;50943;51.448;7.646;2022-09-24T02:03:41;9.27;;;4.80;;
5831;SDS011;50943;51.448;7.646;2022-09-24T02:06:11;14.73;;;5.20;;
5831;SDS011;50943;51.448;7.646;2022-09-24T02:08:40;10.83;;;5.30;;
5831;SDS011;50943;51.448;7.646;2022-09-24T02:11:10;9.00;;;4.67;;
5831;SDS011;50943;51.448;7.646;2022-09-24T02:13:39;7.17;;;4.80;;
5831;SDS011;50943;51.448;7.646;2022-09-24T02:16:08;7.37;;;5.13;;
5831;SDS011;50943;51.448;7.646;2022-09-24T02:18:37;6.53;;;4.90;;
5831;SDS011;50943;51.448;7.646;2022-09-24T02:21:05;10.03;;;5.10;;
5831;SDS011;50943;51.448;7.646;2022-09-24T02:23:34;7.87;;;5.40;;
5831;SDS011;50943;51.448;7.646;2022-09-24T02:26:02;12.83;;;5.23;;
5831;SDS011;50943;51.448;7.646;2022-09-24T02:28:29;8.00;;;5.80;;
5831;SDS011;50943;51.448;7.646;2022-09-24T02:30:58;7.60;;;5.03;;
5831;SDS011;50943;51.448;7.646;2022-09-24T02:33:25;11.20;;;5.40;;
5831;SDS011;50943;51.448;7.646;2022-09-24T02:36:10;9.33;;;5.20;;
5831;SDS011;50943;51.448;7.646;2022-09-24T02:38:38;12.17;;;6.93;;
5831;SDS011;50943;51.448;7.646;2022-09-24T02:41:07;8.50;;;5.10;;
5831;SDS011;50943;51.448;7.646;2022-09-24T02:43:34;7.77;;;4.80;;
5831;SDS011;50943;51.448;7.646;2022-09-24T02:46:00;6.80;;;5.50;;
5831;SDS011;50943;51.448;7.646;2022-09-24T02:48:27;14.83;;;5.87;;
5831;SDS011;50943;51.448;7.646;2022-09-24T02:50:53;9.60;;;5.67;;
5831;SDS011;50943;51.448;7.646;2022-09-24T02:53:20;9.17;;;5.37;;
5831;SDS011;50943;51.448;7.646;2022-09-24T02:55:48;6.83;;;4.90;;
5831;SDS011;50943;51.448;7.646;2022-09-24T02:58:15;7.67;;;5.30;;
5831;SDS011;50943;51.448;7.646;2022-09-24T03:00:41;7.17;;;5.50;;
5831;SDS011;50943;51.448;7.646;2022-09-24T03:03:07;8.77;;;5.50;;
5831;SDS011;50943;51.448;7.646;2022-09-24T03:05:34;7.33;;;5.90;;
5831;SDS011;50943;51.448;7.646;2022-09-24T03:08:00;11.00;;;5.63;;
5831;SDS011;50943;51.448;7.646;2022-09-24T03:10:27;9.63;;;5.50;;
5831;SDS011;50943;51.448;7.646;2022-09-24T03:12:55;12.10;;;5.13;;
5831;SDS011;50943;51.448;7.646;2022-09-24T03:15:22;7.87;;;5.37;;
5831;SDS011;50943;51.448;7.646;2022-09-24T03:17:48;8.00;;;5.40;;
5831;SDS011;50943;51.448;7.646;2022-09-24T03:20:15;11.20;;;5.10;;
5831;SDS011;50943;51.448;7.646;2022-09-24T03:22:41;8.63;;;5.10;;
5831;SDS011;50943;51.448;7.646;2022-09-24T03:25:08;8.43;;;5.37;;
5831;SDS011;50943;51.448;7.646;2022-09-24T03:27:35;12.93;;;5.20;;
5831;SDS011;50943;51.448;7.646;2022-09-24T03:30:03;9.33;;;5.00;;
5831;SDS011;50943;51.448;7.646;2022-09-24T03:32:47;6.70;;;5.23;;
5831;SDS011;50943;51.448;7.646;2022-09-24T03:35:14;8.40;;;4.97;;
5831;SDS011;50943;51.448;7.646;2022-09-24T03:37:40;7.27;;;5.07;;
5831;SDS011;50943;51.448;7.646;2022-09-24T03:40:08;9.73;;;5.80;;
5831;SDS011;50943;51.448;7.646;2022-09-24T03:42:34;7.83;;;5.40;;
5831;SDS011;50943;51.448;7.646;2022-09-24T03:45:02;9.90;;;6.40;;
5831;SDS011;50943;51.448;7.646;2022-09-24T03:47:29;9.60;;;5.40;;
5831;SDS011;50943;51.448;7.646;2022-09-24T03:49:55;8.47;;;6.20;;
5831;SDS011;50943;51.448;7.646;2022-09-24T03:52:22;8.07;;;5.23;;
5831;SDS011;50943;51.448;7.646;2022-09-24T03:54:48;12.67;;;6.07;;
5831;SDS011;50943;51.448;7.646;2022-09-24T03:57:15;11.93;;;5.60;;
5831;SDS011;50943;51.448;7.646;2022-09-24T03:59:42;12.73;;;5.50;;
5831;SDS011;50943;51.448;7.646;2022-09-24T04:02:10;10.90;;;5.80;;
5831;SDS011;50943;51.448;7.646;2022-09-24T04:04:37;10.47;;;6.10;;
5831;SDS011;50943;51.448;7.646;2022-09-24T04:07:03;9.13;;;6.10;;
5831;SDS011;50943;51.448;7.646;2022-09-24T04:09:30;12.53;;;5.70;;
5831;SDS011;50943;51.448;7.646;2022-09-24T04:11:56;10.23;;;6.27;;
5831;SDS011;50943;51.448;7.646;2022-09-24T04:14:23;9.60;;;6.57;;
5831;SDS011;50943;51.448;7.646;2022-09-24T04:16:50;8.97;;;5.70;;
5831;SDS011;50943;51.448;7.646;2022-09-24T04:19:18;14.30;;;6.73;;
5831;SDS011;50943;51.448;7.646;2022-09-24T04:21:45;9.10;;;5.70;;
5831;SDS011;50943;51.448;7.646;2022-09-24T04:24:11;9.33;;;6.07;;
5831;SDS011;50943;51.448;7.646;2022-09-24T04:26:38;9.80;;;5.80;;
5831;SDS011;50943;51.448;7.646;2022-09-24T04:29:04;9.40;;;6.00;;
5831;SDS011;50943;51.448;7.646;2022-09-24T04:31:32;10.37;;;6.13;;
5831;SDS011;50943;51.448;7.646;2022-09-24T04:33:58;11.47;;;6.20;;
5831;SDS011;50943;51.448;7.646;2022-09-24T04:36:26;8.60;;;6.27;;
5831;SDS011;50943;51.448;7.646;2022-09-24T04:38:53;7.80;;;6.07;;
5831;SDS011;50943;51.448;7.646;2022-09-24T04:41:21;9.27;;;6.07;;
5831;SDS011;50943;51.448;7.646;2022-09-24T04:43:47;10.13;;;6.20;;
5831;SDS011;50943;51.448;7.646;2022-09-24T04:46:15;9.03;;;5.13;;
5831;SDS011;50943;51.448;7.646;2022-09-24T04:48:43;10.10;;;5.70;;
5831;SDS011;50943;51.448;7.646;2022-09-24T04:51:09;10.40;;;5.87;;
5831;SDS011;50943;51.448;7.646;2022-09-24T04:53:37;21.10;;;5.87;;
5831;SDS011;50943;51.448;7.646;2022-09-24T04:56:04;8.73;;;6.10;;
5831;SDS011;50943;51.448;7.646;2022-09-24T04:58:36;14.27;;;6.80;;
5831;SDS011;50943;51.448;7.646;2022-09-24T05:01:02;11.87;;;7.80;;
5831;SDS011;50943;51.448;7.646;2022-09-24T05:03:29;11.00;;;7.33;;
5831;SDS011;50943;51.448;7.646;2022-09-24T05:05:55;12.43;;;7.17;;
5831;SDS011;50943;51.448;7.646;2022-09-24T05:08:21;12.53;;;7.63;;
5831;SDS011;50943;51.448;7.646;2022-09-24T05:10:49;9.93;;;6.60;;
5831;SDS011;50943;51.448;7.646;2022-09-24T05:13:17;11.93;;;8.40;;
5831;SDS011;50943;51.448;7.646;2022-09-24T05:15:44;8.03;;;6.47;;
5831;SDS011;50943;51.448;7.646;2022-09-24T05:18:10;12.10;;;6.03;;
5831;SDS011;50943;51.448;7.646;2022-09-24T05:20:37;11.37;;;5.90;;
5831;SDS011;50943;51.448;7.646;2022-09-24T05:23:03;13.93;;;6.07;;
5831;SDS011;50943;51.448;7.646;2022-09-24T05:25:30;12.17;;;5.73;;
5831;SDS011;50943;51.448;7.646;2022-09-24T05:27:58;8.40;;;6.20;;
5831;SDS011;50943;51.448;7.646;2022-09-24T05:30:23;7.80;;;5.77;;
5831;SDS011;50943;51.448;7.646;2022-09-24T05:32:51;9.83;;;6.20;;
5831;SDS011;50943;51.448;7.646;2022-09-24T05:35:17;8.20;;;6.00;;
5831;SDS011;50943;51.448;7.646;2022-09-24T05:37:44;8.60;;;5.90;;
5831;SDS011;50943;51.448;7.646;2022-09-24T05:40:13;11.30;;;6.80;;
5831;SDS011;50943;51.448;7.646;2022-09-24T05:42:59;9.17;;;6.40;;
5831;SDS011;50943;51.448;7.646;2022-09-24T05:45:26;13.43;;;6.70;;
5831;SDS011;50943;51.448;7.646;2022-09-24T05:47:53;13.80;;;6.90;;
5831;SDS011;50943;51.448;7.646;2022-09-24T05:50:20;10.63;;;6.47;;
5831;SDS011;50943;51.448;7.646;2022-09-24T05:52:47;11.97;;;7.67;;
5831;SDS011;50943;51.448;7.646;2022-09-24T05:55:13;10.27;;;6.70;;
5831;SDS011;50943;51.448;7.646;2022-09-24T05:57:39;13.00;;;7.50;;
5831;SDS011;50943;51.448;7.646;2022-09-24T06:00:07;13.67;;;6.73;;
5831;SDS011;50943;51.448;7.646;2022-09-24T06:02:34;11.80;;;7.17;;
5831;SDS011;50943;51.448;7.646;2022-09-24T06:05:00;9.80;;;7.33;;
5831;SDS011;50943;51.448;7.646;2022-09-24T06:07:27;13.43;;;6.90;;
5831;SDS011;50943;51.448;7.646;2022-09-24T06:09:53;13.87;;;7.60;;
5831;SDS011;50943;51.448;7.646;2022-09-24T06:12:23;10.53;;;6.60;;
5831;SDS011;50943;51.448;7.646;2022-09-24T06:14:49;9.57;;;6.70;;
5831;SDS011;50943;51.448;7.646;2022-09-24T06:17:18;10.87;;;7.07;;
5831;SDS011;50943;51.448;7.646;2022-09-24T06:19:45;9.40;;;7.10;;
5831;SDS011;50943;51.448;7.646;2022-09-24T06:22:12;9.07;;;6.30;;
5831;SDS011;50943;51.448;7.646;2022-09-24T06:24:38;14.50;;;5.90;;
5831;SDS011;50943;51.448;7.646;2022-09-24T06:27:05;9.60;;;7.03;;
5831;SDS011;50943;51.448;7.646;2022-09-24T06:29:31;9.77;;;6.50;;
5831;SDS011;50943;51.448;7.646;2022-09-24T06:31:58;12.27;;;7.30;;
5831;SDS011;50943;51.448;7.646;2022-09-24T06:34:27;9.50;;;6.17;;
5831;SDS011;50943;51.448;7.646;2022-09-24T06:36:54;13.83;;;6.63;;
5831;SDS011;50943;51.448;7.646;2022-09-24T06:39:21;9.20;;;7.10;;
5831;SDS011;50943;51.448;7.646;2022-09-24T06:41:47;13.40;;;7.80;;
5831;SDS011;50943;51.448;7.646;2022-09-24T06:44:15;11.50;;;6.70;;
5831;SDS011;50943;51.448;7.646;2022-09-24T06:46:43;11.60;;;7.80;;
5831;SDS011;50943;51.448;7.646;2022-09-24T06:49:09;9.43;;;6.17;;
5831;SDS011;50943;51.448;7.646;2022-09-24T06:51:38;13.83;;;7.53;;
5831;SDS011;50943;51.448;7.646;2022-09-24T06:54:04;12.33;;;7.00;;
5831;SDS011;50943;51.448;7.646;2022-09-24T06:56:31;11.80;;;7.17;;
5831;SDS011;50943;51.448;7.646;2022-09-24T06:58:57;10.03;;;6.53;;
5831;SDS011;50943;51.448;7.646;2022-09-24T07:01:24;11.60;;;7.23;;
5831;SDS011;50943;51.448;7.646;2022-09-24T07:03:50;12.67;;;7.30;;
5831;SDS011;50943;51.448;7.646;2022-09-24T07:06:17;9.73;;;7.37;;
5831;SDS011;50943;51.448;7.646;2022-09-24T07:08:48;10.60;;;7.57;;
5831;SDS011;50943;51.448;7.646;2022-09-24T07:11:15;12.17;;;8.80;;
5831;SDS011;50943;51.448;7.646;2022-09-24T07:13:41;14.17;;;8.97;;
5831;SDS011;50943;51.448;7.646;2022-09-24T07:16:07;12.17;;;7.60;;
5831;SDS011;50943;51.448;7.646;2022-09-24T07:18:34;13.03;;;8.20;;
5831;SDS011;50943;51.448;7.646;2022-09-24T07:21:01;11.10;;;7.30;;
5831;SDS011;50943;51.448;7.646;2022-09-24T07:23:28;13.70;;;6.60;;
5831;SDS011;50943;51.448;7.646;2022-09-24T07:25:55;13.93;;;8.03;;
5831;SDS011;50943;51.448;7.646;2022-09-24T07:28:22;11.70;;;7.07;;
5831;SDS011;50943;51.448;7.646;2022-09-24T07:30:54;10.73;;;6.83;;
5831;SDS011;50943;51.448;7.646;2022-09-24T07:33:21;18.47;;;7.33;;
5831;SDS011;50943;51.448;7.646;2022-09-24T07:35:47;8.93;;;6.00;;
5831;SDS011;50943;51.448;7.646;2022-09-24T07:38:15;9.53;;;6.63;;
5831;SDS011;50943;51.448;7.646;2022-09-24T07:40:41;13.83;;;6.80;;
5831;SDS011;50943;51.448;7.646;2022-09-24T07:43:10;12.43;;;7.50;;
5831;SDS011;50943;51.448;7.646;2022-09-24T07:45:37;16.20;;;8.30;;
5831;SDS011;50943;51.448;7.646;2022-09-24T07:48:04;11.10;;;8.37;;
5831;SDS011;50943;51.448;7.646;2022-09-24T07:50:31;20.30;;;7.60;;
5831;SDS011;50943;51.448;7.646;2022-09-24T07:52:58;15.10;;;8.03;;
5831;SDS011;50943;51.448;7.646;2022-09-24T07:55:25;11.53;;;7.00;;
5831;SDS011;50943;51.448;7.646;2022-09-24T07:57:52;11.70;;;7.93;;
5831;SDS011;50943;51.448;7.646;2022-09-24T08:00:21;10.30;;;7.47;;
5831;SDS011;50943;51.448;7.646;2022-09-24T08:02:48;11.60;;;8.03;;
5831;SDS011;50943;51.448;7.646;2022-09-24T08:05:16;15.33;;;8.43;;
5831;SDS011;50943;51.448;7.646;2022-09-24T08:07:48;11.17;;;8.13;;
5831;SDS011;50943;51.448;7.646;2022-09-24T08:10:15;12.40;;;8.40;;
5831;SDS011;50943;51.448;7.646;2022-09-24T08:12:42;10.90;;;7.10;;
5831;SDS011;50943;51.448;7.646;2022-09-24T08:15:08;13.60;;;7.53;;
5831;SDS011;50943;51.448;7.646;2022-09-24T08:17:36;12.23;;;7.27;;
5831;SDS011;50943;51.448;7.646;2022-09-24T08:20:03;13.67;;;7.43;;
5831;SDS011;50943;51.448;7.646;2022-09-24T08:22:29;12.43;;;6.77;;
5831;SDS011;50943;51.448;7.646;2022-09-24T08:24:56;15.17;;;7.10;;
5831;SDS011;50943;51.448;7.646;2022-09-24T08:27:22;9.70;;;7.27;;
5831;SDS011;50943;51.448;7.646;2022-09-24T08:29:50;12.03;;;7.27;;
5831;SDS011;50943;51.448;7.646;2022-09-24T08:32:16;10.70;;;7.73;;
5831;SDS011;50943;51.448;7.646;2022-09-24T08:34:45;11.63;;;7.57;;
5831;SDS011;50943;51.448;7.646;2022-09-24T08:37:11;10.93;;;8.00;;
5831;SDS011;50943;51.448;7.646;2022-09-24T08:39:38;11.77;;;8.63;;
5831;SDS011;50943;51.448;7.646;2022-09-24T08:42:05;8.20;;;7.13;;
5831;SDS011;50943;51.448;7.646;2022-09-24T08:44:37;13.30;;;8.83;;
5831;SDS011;50943;51.448;7.646;2022-09-24T08:47:27;14.17;;;8.13;;
5831;SDS011;50943;51.448;7.646;2022-09-24T08:49:59;14.73;;;8.40;;
5831;SDS011;50943;51.448;7.646;2022-09-24T08:52:35;11.00;;;7.80;;
5831;SDS011;50943;51.448;7.646;2022-09-24T08:55:05;13.60;;;8.77;;
5831;SDS011;50943;51.448;7.646;2022-09-24T08:57:36;12.90;;;8.17;;
5831;SDS011;50943;51.448;7.646;2022-09-24T09:00:03;10.90;;;7.87;;
5831;SDS011;50943;51.448;7.646;2022-09-24T09:02:33;10.37;;;7.90;;
5831;SDS011;50943;51.448;7.646;2022-09-24T09:05:07;14.23;;;8.00;;
5831;SDS011;50943;51.448;7.646;2022-09-24T09:07:38;13.00;;;8.30;;
5831;SDS011;50943;51.448;7.646;2022-09-24T09:10:08;14.43;;;9.50;;
5831;SDS011;50943;51.448;7.646;2022-09-24T09:12:37;12.80;;;9.13;;
5831;SDS011;50943;51.448;7.646;2022-09-24T09:15:06;16.80;;;8.83;;
5831;SDS011;50943;51.448;7.646;2022-09-24T09:17:38;13.80;;;8.80;;
5831;SDS011;50943;51.448;7.646;2022-09-24T09:20:09;13.13;;;8.73;;
5831;SDS011;50943;51.448;7.646;2022-09-24T09:22:39;11.60;;;8.37;;
5831;SDS011;50943;51.448;7.646;2022-09-24T09:25:11;14.53;;;8.77;;
5831;SDS011;50943;51.448;7.646;2022-09-24T09:27:40;14.20;;;8.90;;
5831;SDS011;50943;51.448;7.646;2022-09-24T09:30:11;12.03;;;8.53;;
5831;SDS011;50943;51.448;7.646;2022-09-24T09:32:40;10.67;;;7.70;;
5831;SDS011;50943;51.448;7.646;2022-09-24T09:35:13;13.90;;;7.70;;
5831;SDS011;50943;51.448;7.646;2022-09-24T09:37:43;10.13;;;7.73;;
5831;SDS011;50943;51.448;7.646;2022-09-24T09:40:18;13.70;;;7.63;;
5831;SDS011;50943;51.448;7.646;2022-09-24T09:42:47;16.70;;;9.00;;
5831;SDS011;50943;51.448;7.646;2022-09-24T09:45:18;13.80;;;9.50;;
5831;SDS011;50943;51.448;7.646;2022-09-24T09:47:48;11.53;;;8.57;;
5831;SDS011;50943;51.448;7.646;2022-09-24T09:50:25;12.03;;;8.10;;
5831;SDS011;50943;51.448;7.646;2022-09-24T09:52:52;12.63;;;8.10;;
5831;SDS011;50943;51.448;7.646;2022-09-24T09:55:19;12.93;;;8.33;;
5831;SDS011;50943;51.448;7.646;2022-09-24T09:57:46;12.13;;;8.43;;
5831;SDS011;50943;51.448;7.646;2022-09-24T10:00:22;10.87;;;7.47;;
5831;SDS011;50943;51.448;7.646;2022-09-24T10:02:49;14.00;;;8.40;;
5831;SDS011;50943;51.448;7.646;2022-09-24T10:05:19;10.03;;;6.93;;
5831;SDS011;50943;51.448;7.646;2022-09-24T10:07:47;13.03;;;8.03;;
5831;SDS011;50943;51.448;7.646;2022-09-24T10:10:16;14.17;;;8.87;;
5831;SDS011;50943;51.448;7.646;2022-09-24T10:12:43;14.57;;;8.10;;
5831;SDS011;50943;51.448;7.646;2022-09-24T10:15:14;18.30;;;8.13;;
5831;SDS011;50943;51.448;7.646;2022-09-24T10:17:41;12.77;;;8.20;;
5831;SDS011;50943;51.448;7.646;2022-09-24T10:20:13;15.33;;;8.50;;
5831;SDS011;50943;51.448;7.646;2022-09-24T10:22:44;18.20;;;8.60;;
5831;SDS011;50943;51.448;7.646;2022-09-24T10:25:15;10.77;;;7.93;;
5831;SDS011;50943;51.448;7.646;2022-09-24T10:27:43;11.17;;;7.70;;
5831;SDS011;50943;51.448;7.646;2022-09-24T10:30:12;11.93;;;7.90;;
5831;SDS011;50943;51.448;7.646;2022-09-24T10:32:57;12.10;;;7.77;;
5831;SDS011;50943;51.448;7.646;2022-09-24T10:35:25;9.97;;;7.57;;
5831;SDS011;50943;51.448;7.646;2022-09-24T10:37:54;13.57;;;8.77;;
5831;SDS011;50943;51.448;7.646;2022-09-24T10:40:21;13.67;;;8.47;;
5831;SDS011;50943;51.448;7.646;2022-09-24T10:42:59;13.63;;;7.43;;
5831;SDS011;50943;51.448;7.646;2022-09-24T10:45:46;17.90;;;8.77;;
5831;SDS011;50943;51.448;7.646;2022-09-24T10:48:19;11.80;;;8.60;;
5831;SDS011;50943;51.448;7.646;2022-09-24T10:50:48;12.23;;;8.07;;
5831;SDS011;50943;51.448;7.646;2022-09-24T10:53:21;12.43;;;8.43;;
5831;SDS011;50943;51.448;7.646;2022-09-24T10:55:51;12.30;;;7.23;;
5831;SDS011;50943;51.448;7.646;2022-09-24T10:58:31;12.10;;;7.97;;
5831;SDS011;50943;51.448;7.646;2022-09-24T11:01:03;14.23;;;7.80;;
5831;SDS011;50943;51.448;7.646;2022-09-24T11:03:41;12.00;;;8.20;;
5831;SDS011;50943;51.448;7.646;2022-09-24T11:06:13;14.83;;;9.73;;
5831;SDS011;50943;51.448;7.646;2022-09-24T11:08:52;12.47;;;8.23;;
5831;SDS011;50943;51.448;7.646;2022-09-24T11:11:24;14.30;;;8.07;;
5831;SDS011;50943;51.448;7.646;2022-09-24T11:13:56;14.53;;;8.47;;
5831;SDS011;50943;51.448;7.646;2022-09-24T11:16:38;15.23;;;9.27;;
5831;SDS011;50943;51.448;7.646;2022-09-24T11:19:07;14.87;;;8.77;;
5831;SDS011;50943;51.448;7.646;2022-09-24T11:21:43;12.23;;;8.17;;
5831;SDS011;50943;51.448;7.646;2022-09-24T11:24:25;13.93;;;9.03;;
5831;SDS011;50943;51.448;7.646;2022-09-24T11:26:57;12.53;;;8.53;;
5831;SDS011;50943;51.448;7.646;2022-09-24T11:29:29;12.77;;;8.43;;
5831;SDS011;50943;51.448;7.646;2022-09-24T11:32:00;13.13;;;7.73;;
5831;SDS011;50943;51.448;7.646;2022-09-24T11:34:40;11.87;;;7.63;;
5831;SDS011;50943;51.448;7.646;2022-09-24T11:37:14;15.03;;;8.70;;
5831;SDS011;50943;51.448;7.646;2022-09-24T11:39:49;9.93;;;6.80;;
5831;SDS011;50943;51.448;7.646;2022-09-24T11:42:21;9.87;;;7.30;;
5831;SDS011;50943;51.448;7.646;2022-09-24T11:44:51;11.30;;;7.83;;
5831;SDS011;50943;51.448;7.646;2022-09-24T11:47:23;9.07;;;6.20;;
5831;SDS011;50943;51.448;7.646;2022-09-24T11:49:58;11.50;;;7.27;;
5831;SDS011;50943;51.448;7.646;2022-09-24T11:52:27;12.73;;;7.20;;
5831;SDS011;50943;51.448;7.646;2022-09-24T11:54:59;11.20;;;6.70;;
5831;SDS011;50943;51.448;7.646;2022-09-24T11:57:27;10.33;;;8.00;;
5831;SDS011;50943;51.448;7.646;2022-09-24T11:59:55;11.40;;;7.43;;
5831;SDS011;50943;51.448;7.646;2022-09-24T12:02:25;10.97;;;7.57;;
5831;SDS011;50943;51.448;7.646;2022-09-24T12:04:54;11.40;;;7.97;;
5831;SDS011;50943;51.448;7.646;2022-09-24T12:07:23;14.60;;;10.50;;
5831;SDS011;50943;51.448;7.646;2022-09-24T12:09:54;13.83;;;10.40;;
5831;SDS011;50943;51.448;7.646;2022-09-24T12:12:25;15.00;;;9.20;;
5831;SDS011;50943;51.448;7.646;2022-09-24T12:14:53;13.60;;;9.30;;
5831;SDS011;50943;51.448;7.646;2022-09-24T12:17:24;16.20;;;11.60;;
5831;SDS011;50943;51.448;7.646;2022-09-24T12:19:53;13.70;;;9.57;;
5831;SDS011;50943;51.448;7.646;2022-09-24T12:22:21;34.37;;;26.37;;
5831;SDS011;50943;51.448;7.646;2022-09-24T12:24:48;21.27;;;11.30;;
5831;SDS011;50943;51.448;7.646;2022-09-24T12:27:18;13.83;;;9.10;;
5831;SDS011;50943;51.448;7.646;2022-09-24T12:29:49;15.23;;;10.90;;
5831;SDS011;50943;51.448;7.646;2022-09-24T12:32:35;19.77;;;13.03;;
5831;SDS011;50943;51.448;7.646;2022-09-24T12:35:24;20.80;;;13.10;;
5831;SDS011;50943;51.448;7.646;2022-09-24T12:37:52;18.67;;;13.33;;
5831;SDS011;50943;51.448;7.646;2022-09-24T12:40:33;25.40;;;16.57;;
5831;SDS011;50943;51.448;7.646;2022-09-24T12:43:01;22.53;;;14.03;;
5831;SDS011;50943;51.448;7.646;2022-09-24T12:45:32;20.60;;;12.97;;
5831;SDS011;50943;51.448;7.646;2022-09-24T12:48:00;22.40;;;15.10;;
5831;SDS011;50943;51.448;7.646;2022-09-24T12:50:27;21.50;;;15.23;;
5831;SDS011;50943;51.448;7.646;2022-09-24T12:52:54;20.83;;;12.90;;
5831;SDS011;50943;51.448;7.646;2022-09-24T12:55:21;22.37;;;15.30;;
5831;SDS011;50943;51.448;7.646;2022-09-24T12:57:49;23.40;;;13.40;;
5831;SDS011;50943;51.448;7.646;2022-09-24T13:00:35;24.87;;;14.73;;
5831;SDS011;50943;51.448;7.646;2022-09-24T13:03:02;22.77;;;13.60;;
5831;SDS011;50943;51.448;7.646;2022-09-24T13:05:32;27.53;;;15.10;;
5831;SDS011;50943;51.448;7.646;2022-09-24T13:07:59;25.57;;;15.73;;
5831;SDS011;50943;51.448;7.646;2022-09-24T13:10:27;22.53;;;13.73;;
5831;SDS011;50943;51.448;7.646;2022-09-24T13:12:54;20.67;;;14.27;;
5831;SDS011;50943;51.448;7.646;2022-09-24T13:15:31;21.23;;;13.60;;
5831;SDS011;50943;51.448;7.646;2022-09-24T13:18:00;22.97;;;14.83;;
5831;SDS011;50943;51.448;7.646;2022-09-24T13:20:28;25.17;;;16.50;;
5831;SDS011;50943;51.448;7.646;2022-09-24T13:22:56;23.27;;;14.53;;
5831;SDS011;50943;51.448;7.646;2022-09-24T13:25:24;22.03;;;14.73;;
5831;SDS011;50943;51.448;7.646;2022-09-24T13:30:35;25.13;;;15.17;;
5831;SDS011;50943;51.448;7.646;2022-09-24T13:33:12;24.13;;;15.33;;
5831;SDS011;50943;51.448;7.646;2022-09-24T13:35:42;28.03;;;17.97;;
5831;SDS011;50943;51.448;7.646;2022-09-24T13:38:12;31.43;;;15.80;;
5831;SDS011;50943;51.448;7.646;2022-09-24T13:40:42;24.43;;;15.30;;
5831;SDS011;50943;51.448;7.646;2022-09-24T13:43:10;25.60;;;15.50;;
5831;SDS011;50943;51.448;7.646;2022-09-24T13:45:38;24.97;;;16.03;;
5831;SDS011;50943;51.448;7.646;2022-09-24T13:48:12;22.20;;;14.60;;
5831;SDS011;50943;51.448;7.646;2022-09-24T13:50:42;23.10;;;14.37;;
5831;SDS011;50943;51.448;7.646;2022-09-24T13:53:12;25.53;;;15.30;;
5831;SDS011;50943;51.448;7.646;2022-09-24T13:55:43;22.80;;;14.90;;
5831;SDS011;50943;51.448;7.646;2022-09-24T13:58:24;23.73;;;15.07;;
5831;SDS011;50943;51.448;7.646;2022-09-24T14:00:51;25.30;;;14.30;;
5831;SDS011;50943;51.448;7.646;2022-09-24T14:03:19;27.50;;;16.03;;
5831;SDS011;50943;51.448;7.646;2022-09-24T14:05:46;25.80;;;16.37;;
5831;SDS011;50943;51.448;7.646;2022-09-24T14:08:16;25.80;;;16.57;;
5831;SDS011;50943;51.448;7.646;2022-09-24T14:10:43;20.27;;;14.23;;
5831;SDS011;50943;51.448;7.646;2022-09-24T14:13:13;22.57;;;15.83;;
5831;SDS011;50943;51.448;7.646;2022-09-24T14:15:51;23.57;;;16.30;;
5831;SDS011;50943;51.448;7.646;2022-09-24T14:18:19;23.13;;;14.73;;
5831;SDS011;50943;51.448;7.646;2022-09-24T14:20:47;25.80;;;16.40;;
5831;SDS011;50943;51.448;7.646;2022-09-24T14:23:16;27.07;;;16.73;;
5831;SDS011;50943;51.448;7.646;2022-09-24T14:25:44;24.87;;;16.43;;
5831;SDS011;50943;51.448;7.646;2022-09-24T14:28:11;23.57;;;15.50;;
5831;SDS011;50943;51.448;7.646;2022-09-24T14:30:38;23.30;;;15.57;;
5831;SDS011;50943;51.448;7.646;2022-09-24T14:33:13;20.83;;;14.40;;
5831;SDS011;50943;51.448;7.646;2022-09-24T14:35:44;21.67;;;15.50;;
5831;SDS011;50943;51.448;7.646;2022-09-24T14:38:13;23.50;;;15.30;;
5831;SDS011;50943;51.448;7.646;2022-09-24T14:40:42;27.93;;;15.13;;
5831;SDS011;50943;51.448;7.646;2022-09-24T14:43:16;23.23;;;14.53;;
5831;SDS011;50943;51.448;7.646;2022-09-24T14:45:43;22.97;;;14.60;;
5831;SDS011;50943;51.448;7.646;2022-09-24T14:48:16;28.20;;;16.93;;
5831;SDS011;50943;51.448;7.646;2022-09-24T14:50:45;29.57;;;16.50;;
5831;SDS011;50943;51.448;7.646;2022-09-24T14:53:12;27.37;;;16.57;;
5831;SDS011;50943;51.448;7.646;2022-09-24T14:55:44;28.13;;;17.50;;
5831;SDS011;50943;51.448;7.646;2022-09-24T14:58:23;31.17;;;18.57;;
5831;SDS011;50943;51.448;7.646;2022-09-24T15:00:50;30.33;;;19.37;;
5831;SDS011;50943;51.448;7.646;2022-09-24T15:03:24;28.50;;;18.70;;
5831;SDS011;50943;51.448;7.646;2022-09-24T15:06:01;28.20;;;17.83;;
5831;SDS011;50943;51.448;7.646;2022-09-24T15:08:28;29.10;;;16.83;;